Time;durP1;ratioP1;P1;durP2;ratioP2;P2;SDS_P1;SDS_P2;PMS_P1;PMS_P2;Temp;Humidity;BMP_temperature;BMP_pressure;BME280_temperature;BME280_humidity;BME280_pressure;Samples;Min_cycle;Max_cycle;Signal;HPM_P1;HPM_P2
2022/07/23 00:00:47;;;;;;;5.35;3.75;;;;;;;23.49;52.07;99163.22;4345169;33;34800;-79
2022/07/23 00:03:15;;;;;;;8.45;4.32;;;;;;;23.44;52.25;99165.31;4347063;33;35880;-79
2022/07/23 00:05:43;;;;;;;6.70;4.30;;;;;;;23.43;52.06;99158.28;4346683;33;34633;-80
2022/07/23 00:08:11;;;;;;;7.37;4.50;;;;;;;23.44;51.97;99160.00;4348524;33;33243;-79
2022/07/23 00:10:41;;;;;;;10.73;4.45;;;;;;;23.32;52.03;99155.50;4340689;33;198413;-79
2022/07/23 00:13:09;;;;;;;9.32;4.60;;;;;;;23.23;52.37;99162.28;4347838;33;35063;-79
2022/07/23 00:15:37;;;;;;;13.23;4.57;;;;;;;23.20;52.39;99155.34;4334176;33;35316;-79
2022/07/23 00:18:05;;;;;;;7.87;4.70;;;;;;;23.21;52.03;99157.06;4326196;33;34525;-79
2022/07/23 00:20:33;;;;;;;5.85;4.32;;;;;;;23.14;52.46;99150.44;4345334;33;34045;-79
2022/07/23 00:23:01;;;;;;;7.32;5.07;;;;;;;23.04;52.83;99151.97;4346457;33;36034;-79
2022/07/23 00:25:29;;;;;;;5.87;4.30;;;;;;;23.00;52.82;99155.78;4348341;33;34708;-79
2022/07/23 00:27:59;;;;;;;8.63;4.30;;;;;;;22.91;53.10;99158.06;4333782;33;34138;-79
2022/07/23 00:30:31;;;;;;;10.23;4.78;;;;;;;22.90;52.88;99152.84;4348324;33;33721;-79
2022/07/23 00:33:03;;;;;;;6.75;4.55;;;;;;;22.78;53.80;99151.84;4344915;33;34956;-79
2022/07/23 00:35:35;;;;;;;7.28;4.62;;;;;;;22.78;53.73;99162.47;4346800;33;34474;-79
2022/07/23 00:38:04;;;;;;;9.77;5.07;;;;;;;22.68;52.93;99150.75;4346637;33;33640;-79
2022/07/23 00:40:33;;;;;;;7.03;5.00;;;;;;;22.66;53.62;99157.94;4348219;33;33917;-79
2022/07/23 00:43:01;;;;;;;7.93;5.03;;;;;;;22.61;53.33;99154.75;4343092;33;35902;-79
2022/07/23 00:45:30;;;;;;;11.23;5.32;;;;;;;22.81;51.99;99158.78;4346539;33;34570;-79
2022/07/23 00:47:59;;;;;;;6.07;4.32;;;;;;;22.81;52.50;99156.13;4333067;33;33233;-79
2022/07/23 00:50:27;;;;;;;7.20;4.53;;;;;;;22.74;52.50;99157.47;4334888;33;33796;-79
2022/07/23 00:52:56;;;;;;;9.13;4.95;;;;;;;22.78;52.12;99153.66;4346093;33;34902;-79
2022/07/23 00:55:24;;;;;;;9.63;4.18;;;;;;;22.79;52.16;99158.88;4334894;33;34526;-79
2022/07/23 00:57:53;;;;;;;8.45;5.18;;;;;;;23.05;51.71;99153.72;4346202;33;33860;-79
2022/07/23 01:00:21;;;;;;;5.62;4.07;;;;;;;22.95;52.17;99152.56;4328777;33;34109;-80
2022/07/23 01:02:50;;;;;;;6.35;4.32;;;;;;;22.89;52.43;99146.72;4345927;33;35551;-79
2022/07/23 01:05:21;;;;;;;9.55;4.40;;;;;;;23.01;51.66;99152.16;4346480;33;34519;-79
2022/07/23 01:07:51;;;;;;;7.62;4.53;;;;;;;23.08;51.10;99150.84;4346210;33;33348;-79
2022/07/23 01:10:33;;;;;;;6.32;4.47;;;;;;;23.03;50.53;99152.91;4347910;33;34005;-79
2022/07/23 01:13:05;;;;;;;7.75;5.22;;;;;;;22.09;53.46;99156.16;4344058;33;35939;-79
2022/07/23 01:15:34;;;;;;;9.25;4.90;;;;;;;23.13;50.35;99162.00;4347523;33;33874;-79
2022/07/23 01:18:04;;;;;;;8.18;4.55;;;;;;;23.16;51.26;99158.31;4345791;33;34503;-80
2022/07/23 01:20:33;;;;;;;8.55;4.55;;;;;;;23.11;51.74;99150.66;4346501;33;33898;-79
2022/07/23 01:23:01;;;;;;;9.15;4.95;;;;;;;23.07;51.22;99147.34;4345726;33;36010;-79
2022/07/23 01:25:29;;;;;;;7.47;4.45;;;;;;;22.96;51.18;99155.13;4348172;33;34461;-80
2022/07/23 01:27:57;;;;;;;7.40;4.28;;;;;;;22.84;51.68;99151.47;4347752;33;33550;-79
2022/07/23 01:30:25;;;;;;;7.43;4.60;;;;;;;22.77;52.18;99150.16;4348036;33;34057;-79
2022/07/23 01:32:53;;;;;;;6.65;4.65;;;;;;;22.61;52.58;99144.12;4347962;33;34930;-79
2022/07/23 01:35:21;;;;;;;8.25;4.90;;;;;;;22.41;53.60;99151.50;4348271;33;34487;-79
2022/07/23 01:37:49;;;;;;;8.88;4.82;;;;;;;22.03;53.62;99148.59;4347933;33;33519;-80
2022/07/23 01:40:18;;;;;;;8.05;5.32;;;;;;;22.55;52.96;99150.66;4349389;33;34775;-79
2022/07/23 01:42:48;;;;;;;8.90;4.32;;;;;;;22.84;51.45;99154.13;4347951;33;34221;-79
2022/07/23 01:45:17;;;;;;;10.85;4.75;;;;;;;22.73;52.35;99153.97;4349705;33;34476;-79
2022/07/23 01:47:47;;;;;;;7.40;5.12;;;;;;;22.60;52.95;99153.03;4346355;33;33715;-79
2022/07/23 01:50:15;;;;;;;8.75;4.70;;;;;;;22.47;52.83;99148.50;4336209;33;33808;-79
2022/07/23 01:52:42;;;;;;;6.82;4.30;;;;;;;22.60;52.69;99153.88;4333258;33;34963;-80
2022/07/23 01:55:11;;;;;;;7.45;4.95;;;;;;;22.66;51.77;99147.31;4349236;33;35300;-79
2022/07/23 01:57:46;;;;;;;8.60;5.57;;;;;;;22.53;52.14;99144.59;4347474;33;33820;-79
2022/07/23 02:00:15;;;;;;;8.80;4.80;;;;;;;22.42;52.44;99145.28;4334961;33;34635;-79
2022/07/23 02:02:45;;;;;;;6.37;4.35;;;;;;;22.11;54.16;99136.56;4347799;33;35128;-79
2022/07/23 02:05:13;;;;;;;8.45;5.15;;;;;;;21.76;53.93;99131.59;4341580;33;34565;-79
2022/07/23 02:07:42;;;;;;;8.00;5.30;;;;;;;22.26;52.28;99140.03;4347336;33;35445;-79
2022/07/23 02:10:10;;;;;;;7.78;4.72;;;;;;;21.82;53.23;99135.66;4349302;33;34027;-79
2022/07/23 02:12:38;;;;;;;7.93;4.47;;;;;;;22.53;52.49;99137.47;4345201;33;34914;-79
2022/07/23 02:15:06;;;;;;;8.13;5.20;;;;;;;22.50;51.98;99139.47;4349461;33;34578;-79
2022/07/23 02:17:37;;;;;;;6.43;4.80;;;;;;;22.40;52.61;99141.88;4347234;33;34284;-79
2022/07/23 02:20:07;;;;;;;11.65;4.82;;;;;;;22.24;53.18;99143.75;4336121;33;33507;-79
2022/07/23 02:22:35;;;;;;;6.55;4.93;;;;;;;21.88;53.19;99145.91;4345977;33;35071;-79
2022/07/23 02:25:07;;;;;;;7.85;5.12;;;;;;;22.17;52.61;99143.28;4334516;33;34593;-79
2022/07/23 02:27:36;;;;;;;7.53;5.50;;;;;;;22.19;53.54;99137.88;4347363;33;33603;-79
2022/07/23 02:30:05;;;;;;;6.90;4.75;;;;;;;22.05;53.50;99142.22;4349237;33;34840;-79
2022/07/23 02:32:34;;;;;;;8.13;4.85;;;;;;;22.13;53.18;99145.25;4347200;33;35054;-79
2022/07/23 02:35:03;;;;;;;6.28;4.93;;;;;;;22.14;53.80;99144.31;4349257;33;35252;-79
2022/07/23 02:37:32;;;;;;;8.25;5.10;;;;;;;22.27;53.45;99140.91;4346024;33;33648;-79
2022/07/23 02:40:00;;;;;;;8.23;4.82;;;;;;;22.24;53.79;99146.41;4347848;33;34047;-80
2022/07/23 02:42:30;;;;;;;8.02;4.50;;;;;;;22.31;53.48;99147.75;4334560;33;35292;-79
2022/07/23 02:44:58;;;;;;;8.38;4.97;;;;;;;22.20;54.08;99151.06;4349092;33;34359;-80
2022/07/23 02:47:26;;;;;;;10.60;5.03;;;;;;;22.03;54.73;99148.59;4347184;33;34357;-79
2022/07/23 02:49:56;;;;;;;7.12;4.90;;;;;;;21.59;55.91;99150.31;4349393;33;33360;-80
2022/07/23 02:52:24;;;;;;;7.78;5.12;;;;;;;22.01;54.81;99146.00;4347546;33;35891;-80
2022/07/23 02:54:52;;;;;;;6.65;4.75;;;;;;;22.11;54.86;99154.25;4334106;33;34738;-79
2022/07/23 02:57:20;;;;;;;9.32;5.82;;;;;;;22.17;54.42;99153.03;4345907;33;33651;-79
2022/07/23 02:59:47;;;;;;;10.60;6.28;;;;;;;22.06;54.89;99154.53;4348472;33;33352;-80
2022/07/23 03:02:17;;;;;;;7.60;5.12;;;;;;;22.15;55.24;99148.66;4349245;33;36432;-79
2022/07/23 03:04:46;;;;;;;10.55;5.93;;;;;;;22.06;55.17;99148.37;4347317;33;33308;-80
2022/07/23 03:07:14;;;;;;;8.07;5.75;;;;;;;21.93;55.46;99148.28;4348981;33;33675;-80
2022/07/23 03:09:42;;;;;;;7.37;5.32;;;;;;;22.06;55.42;99143.06;4340768;33;34734;-79
2022/07/23 03:12:10;;;;;;;6.97;5.03;;;;;;;21.95;55.38;99146.38;4347060;33;35920;-79
2022/07/23 03:14:41;;;;;;;9.43;5.25;;;;;;;21.98;55.56;99145.34;4347316;33;34433;-79
2022/07/23 03:17:09;;;;;;;8.35;4.97;;;;;;;22.04;55.43;99143.19;4333854;33;33637;-79
2022/07/23 03:19:38;;;;;;;7.10;5.10;;;;;;;21.98;55.65;99140.91;4334366;33;34006;-79
2022/07/23 03:22:07;;;;;;;14.32;6.20;;;;;;;22.10;55.50;99134.00;4349142;33;35546;-79
2022/07/23 03:24:56;;;;;;;10.68;5.82;;;;;;;22.02;55.34;99136.25;4333963;33;35363;-79
2022/07/23 03:27:26;;;;;;;11.12;5.50;;;;;;;22.01;56.18;99139.87;4347284;33;33776;-79
2022/07/23 03:29:56;;;;;;;6.70;4.72;;;;;;;21.95;55.88;99138.41;4344926;33;34308;-79
2022/07/23 03:32:24;;;;;;;8.90;6.28;;;;;;;22.03;55.72;99135.31;4348794;33;35175;-80
2022/07/23 03:34:52;;;;;;;9.20;5.40;;;;;;;22.12;55.99;99138.25;4346106;33;32615;-80
2022/07/23 03:37:22;;;;;;;22.70;6.47;;;;;;;22.26;56.02;99133.91;4348959;33;33642;-80
2022/07/23 03:39:50;;;;;;;10.55;5.32;;;;;;;22.35;55.94;99143.97;4346927;33;33876;-80
2022/07/23 03:42:18;;;;;;;7.50;5.53;;;;;;;22.45;55.94;99144.25;4348681;33;35088;-80
2022/07/23 03:44:46;;;;;;;7.37;4.68;;;;;;;22.21;56.66;99146.59;4347102;33;34441;-80
2022/07/23 03:47:14;;;;;;;10.57;5.12;;;;;;;22.37;56.25;99150.00;4348680;33;33578;-80
2022/07/23 03:49:43;;;;;;;9.18;5.00;;;;;;;22.42;56.02;99147.94;4346836;33;33847;-79
2022/07/23 03:52:11;;;;;;;10.57;5.30;;;;;;;22.57;55.87;99147.91;4348904;33;35195;-79
2022/07/23 03:54:39;;;;;;;9.77;5.40;;;;;;;22.57;55.73;99153.22;4345150;33;34047;-81
2022/07/23 03:57:07;;;;;;;10.68;5.05;;;;;;;22.79;56.05;99158.88;4348593;33;33752;-79
2022/07/23 03:59:35;;;;;;;8.40;4.90;;;;;;;22.83;55.75;99152.41;4343825;33;33800;-79
2022/07/23 04:02:03;;;;;;;15.93;6.35;;;;;;;22.72;58.23;99154.91;4348494;33;36120;-81
2022/07/23 04:04:31;;;;;;;32.67;6.07;;;;;;;22.65;58.40;99154.44;4347070;33;34593;-80
2022/07/23 04:06:59;;;;;;;24.05;6.80;;;;;;;22.90;58.43;99153.69;4348761;33;34091;-80
2022/07/23 04:09:27;;;;;;;9.73;4.95;;;;;;;23.07;58.19;99157.13;4346744;33;33951;-80
2022/07/23 04:11:56;;;;;;;7.97;5.30;;;;;;;23.07;54.73;99160.63;4339982;33;34756;-80
2022/07/23 04:14:24;;;;;;;9.45;5.22;;;;;;;23.47;52.92;99159.78;4333690;33;33408;-80
2022/07/23 04:16:52;;;;;;;7.45;5.80;;;;;;;23.84;54.04;99165.28;4346253;33;33653;-81
2022/07/23 04:19:20;;;;;;;9.50;5.30;;;;;;;24.01;55.55;99159.66;4344226;33;33791;-80
2022/07/23 04:21:49;;;;;;;7.87;5.20;;;;;;;23.93;55.15;99162.03;4347205;33;35110;-80
2022/07/23 04:24:17;;;;;;;9.70;5.53;;;;;;;24.00;55.39;99160.63;4344765;33;34713;-80
2022/07/23 04:26:45;;;;;;;8.45;6.60;;;;;;;24.28;53.90;99164.00;4348406;33;34531;-80
2022/07/23 04:29:14;;;;;;;8.38;5.15;;;;;;;24.42;53.79;99165.69;4346366;33;33918;-80
2022/07/23 04:31:41;;;;;;;7.97;5.62;;;;;;;24.40;54.36;99159.62;4347121;33;35503;-80
2022/07/23 04:34:10;;;;;;;8.18;5.47;;;;;;;24.35;55.44;99162.63;4346544;33;35222;-80
2022/07/23 04:36:37;;;;;;;8.23;5.05;;;;;;;24.28;55.10;99160.50;4348529;33;33623;-81
2022/07/23 04:39:06;;;;;;;10.75;5.22;;;;;;;24.87;54.37;99166.06;4346702;33;33942;-81
2022/07/23 04:41:35;;;;;;;8.18;4.78;;;;;;;25.03;53.39;99165.78;4348374;33;34961;-80
2022/07/23 04:44:03;;;;;;;8.77;5.10;;;;;;;24.81;53.63;99165.66;4346349;33;34057;-80
2022/07/23 04:46:32;;;;;;;7.10;5.60;;;;;;;25.07;54.76;99180.56;4346909;33;34372;-80
2022/07/23 04:49:01;;;;;;;7.20;5.70;;;;;;;25.16;55.61;99174.56;4342753;33;34064;-80
2022/07/23 04:51:30;;;;;;;9.80;5.32;;;;;;;25.01;55.66;99174.84;4348274;33;35128;-81
2022/07/23 04:53:58;;;;;;;12.20;5.60;;;;;;;25.21;54.11;99170.72;4346160;33;34694;-81
2022/07/23 04:56:26;;;;;;;8.05;5.62;;;;;;;25.43;54.35;99164.66;4348321;33;34183;-81
2022/07/23 04:58:54;;;;;;;33.35;7.68;;;;;;;25.29;55.07;99171.03;4346185;33;33814;-81
2022/07/23 05:01:22;;;;;;;14.18;5.45;;;;;;;25.80;54.16;99162.72;4351649;33;35032;-85
2022/07/23 05:03:51;;;;;;;11.90;5.90;;;;;;;26.11;52.71;99168.38;4345604;33;35110;-83
2022/07/23 05:06:19;;;;;;;8.52;4.82;;;;;;;26.56;52.08;99171.06;4344699;33;33751;-83
2022/07/23 05:08:47;;;;;;;10.00;5.00;;;;;;;26.29;51.86;99166.97;4350905;33;34602;-81
2022/07/23 05:11:16;;;;;;;15.05;4.78;;;;;;;26.97;48.19;99168.72;4352644;33;35888;-81
2022/07/23 05:13:44;;;;;;;10.73;4.68;;;;;;;27.41;48.61;99167.75;4350684;33;35045;-81
2022/07/23 05:16:12;;;;;;;10.38;5.00;;;;;;;27.90;46.16;99167.25;4352620;33;33451;-81
2022/07/23 05:18:40;;;;;;;13.82;5.20;;;;;;;27.48;46.92;99168.09;4350368;33;34159;-83
2022/07/23 05:21:08;;;;;;;9.02;4.93;;;;;;;27.16;46.77;99158.22;4351287;33;34497;-83
2022/07/23 05:23:36;;;;;;;12.00;4.82;;;;;;;27.33;46.22;99167.53;4350861;33;34514;-82
2022/07/23 05:26:04;;;;;;;10.70;5.05;;;;;;;28.30;44.20;99163.81;4351045;33;33565;-85
2022/07/23 05:28:32;;;;;;;10.15;5.00;;;;;;;28.18;44.90;99173.78;4331939;33;33918;-81
2022/07/23 05:31:00;;;;;;;9.68;5.50;;;;;;;28.37;45.46;99167.66;4352480;33;35696;-81
2022/07/23 05:33:30;;;;;;;9.30;4.62;;;;;;;28.64;43.92;99168.91;4350702;33;34651;-81
2022/07/23 05:36:02;;;;;;;15.77;5.30;;;;;;;29.25;42.99;99170.63;4350767;33;33645;-81
2022/07/23 05:38:32;;;;;;;6.95;4.65;;;;;;;29.94;42.21;99174.97;4350377;33;34013;-82
2022/07/23 05:41:02;;;;;;;11.80;4.62;;;;;;;30.58;41.11;99176.03;4339363;33;34282;-83
2022/07/23 05:43:30;;;;;;;8.85;4.53;;;;;;;31.28;38.19;99171.97;4350254;33;35248;-83
2022/07/23 05:45:58;;;;;;;9.98;4.82;;;;;;;31.34;36.89;99174.03;4350166;33;33800;-82
2022/07/23 05:48:26;;;;;;;10.45;4.47;;;;;;;31.04;37.13;99175.25;4350503;33;34629;-82
2022/07/23 05:50:55;;;;;;;16.00;5.37;;;;;;;30.95;37.08;99166.25;4352354;33;35895;-84
2022/07/23 05:53:25;;;;;;;25.17;4.78;;;;;;;31.03;37.46;99174.41;4349120;33;34125;-84
2022/07/23 05:55:53;;;;;;;13.00;4.60;;;;;;;31.46;36.03;99170.13;4352257;33;33718;-85
2022/07/23 05:58:21;;;;;;;18.35;5.50;;;;;;;31.69;35.55;99169.66;4344477;33;34692;-84
2022/07/23 06:00:49;;;;;;;19.95;5.07;;;;;;;32.18;35.69;99171.88;4352121;33;34738;-84
2022/07/23 06:03:18;;;;;;;29.92;5.87;;;;;;;32.68;33.36;99163.91;4349166;33;34408;-84
2022/07/23 06:05:45;;;;;;;16.65;5.07;;;;;;;32.83;33.94;99171.38;4352020;33;33089;-84
2022/07/23 06:08:13;;;;;;;15.02;4.95;;;;;;;32.64;33.60;99164.38;4343392;33;34082;-84
2022/07/23 06:10:42;;;;;;;13.75;3.90;;;;;;;32.87;33.08;99162.75;4349757;33;35162;-82
2022/07/23 06:13:10;;;;;;;6.60;4.60;;;;;;;34.06;31.07;99154.41;4349434;33;35520;-84
2022/07/23 06:15:38;;;;;;;13.48;5.00;;;;;;;34.58;30.54;99158.50;4347406;33;33307;-84
2022/07/23 06:18:06;;;;;;;6.03;4.18;;;;;;;33.95;32.22;99152.91;4348927;33;34382;-84
2022/07/23 06:20:34;;;;;;;10.82;4.85;;;;;;;34.32;32.24;99154.19;4345720;33;35985;-84
2022/07/23 06:23:02;;;;;;;11.75;4.70;;;;;;;33.86;32.65;99153.97;4347606;33;35222;-84
2022/07/23 06:25:30;;;;;;;10.73;4.47;;;;;;;33.99;33.13;99143.44;4347588;33;34368;-84
2022/07/23 06:27:59;;;;;;;6.28;4.12;;;;;;;34.58;31.61;99153.09;4349231;33;33859;-85
2022/07/23 06:30:27;;;;;;;7.30;4.80;;;;;;;34.46;31.24;99156.16;4347187;33;35447;-84
2022/07/23 06:32:56;;;;;;;6.75;4.80;;;;;;;34.28;31.34;99158.28;4349161;33;34096;-84
2022/07/23 06:35:24;;;;;;;8.98;4.28;;;;;;;34.32;30.82;99154.19;4347322;33;34038;-84
2022/07/23 06:37:51;;;;;;;10.35;4.50;;;;;;;34.47;31.00;99152.47;4344334;33;34626;-84
2022/07/23 06:40:21;;;;;;;8.23;4.43;;;;;;;34.66;31.02;99151.19;4334085;33;34892;-84
2022/07/23 06:42:49;;;;;;;9.82;4.70;;;;;;;34.94;30.24;99157.00;4334392;33;34131;-84
2022/07/23 06:45:17;;;;;;;7.37;4.40;;;;;;;35.90;28.47;99158.47;4334495;33;33645;-84
2022/07/23 06:47:47;;;;;;;9.18;4.65;;;;;;;35.97;28.63;99156.69;4334140;33;34724;-85
2022/07/23 06:50:15;;;;;;;16.20;4.32;;;;;;;36.11;27.67;99157.75;4334363;33;35071;-84
2022/07/23 06:52:42;;;;;;;8.88;3.95;;;;;;;36.32;28.40;99157.03;4334545;33;34435;-84
2022/07/23 06:55:11;;;;;;;11.70;4.37;;;;;;;36.19;26.76;99154.97;4334368;33;34542;-84
2022/07/23 06:57:39;;;;;;;9.57;4.03;;;;;;;35.99;29.33;99155.50;4334369;33;34741;-84
2022/07/23 07:00:07;;;;;;;20.48;4.80;;;;;;;36.70;26.38;99155.06;4334433;33;35784;-84
2022/07/23 07:02:36;;;;;;;10.93;4.12;;;;;;;37.07;26.42;99152.34;4334023;33;35147;-84
2022/07/23 07:05:05;;;;;;;8.65;4.30;;;;;;;36.80;26.25;99144.75;4306858;33;33628;-84
2022/07/23 07:07:34;;;;;;;8.88;4.22;;;;;;;37.25;25.54;99143.78;4328037;33;34846;-85
2022/07/23 07:10:03;;;;;;;9.48;4.53;;;;;;;36.34;26.25;99150.41;4333914;33;34785;-84
2022/07/23 07:12:31;;;;;;;12.20;4.65;;;;;;;36.66;26.19;99137.47;4327853;33;35236;-84
2022/07/23 07:14:59;;;;;;;8.18;4.40;;;;;;;37.30;25.78;99141.34;4347102;33;34571;-84
2022/07/23 07:17:27;;;;;;;10.50;4.10;;;;;;;36.70;26.05;99140.66;4335520;33;33498;-84
2022/07/23 07:19:55;;;;;;;7.82;4.10;;;;;;;36.92;26.20;99141.53;4345334;33;35055;-85
2022/07/23 07:22:23;;;;;;;6.32;4.12;;;;;;;36.76;25.33;99135.31;4348797;33;35359;-84
2022/07/23 07:24:51;;;;;;;11.12;3.92;;;;;;;37.94;23.67;99135.81;4346592;33;33715;-84
2022/07/23 07:27:19;;;;;;;8.35;4.18;;;;;;;38.61;22.78;99138.91;4347469;33;33834;-84
2022/07/23 07:29:47;;;;;;;11.10;7.00;;;;;;;38.11;23.49;99132.81;4346794;33;35068;-84
2022/07/23 07:32:15;;;;;;;11.38;4.32;;;;;;;38.10;24.11;99133.81;4348640;33;34372;-84
2022/07/23 07:35:04;;;;;;;9.50;4.62;;;;;;;38.35;22.33;99133.34;4347044;33;34545;-84
2022/07/23 07:37:33;;;;;;;10.88;3.97;;;;;;;37.75;23.39;99133.78;4347359;33;34580;-84
2022/07/23 07:40:01;;;;;;;6.15;3.95;;;;;;;38.44;22.75;99129.41;4332186;33;34864;-84
2022/07/23 07:42:28;;;;;;;7.35;4.68;;;;;;;38.87;21.88;99135.44;4335521;33;34390;-84
2022/07/23 07:44:57;;;;;;;9.13;4.07;;;;;;;38.76;21.74;99132.50;4345221;33;33741;-84
2022/07/23 07:47:24;;;;;;;7.93;4.07;;;;;;;39.03;22.21;99136.16;4348757;33;33756;-84
2022/07/23 07:49:52;;;;;;;7.37;3.80;;;;;;;39.32;21.31;99132.22;4346717;33;35180;-83
2022/07/23 07:52:21;;;;;;;9.80;3.97;;;;;;;39.21;21.63;99132.81;4348631;33;34696;-83
2022/07/23 07:54:49;;;;;;;8.90;4.32;;;;;;;39.47;22.23;99136.62;4346199;33;33624;-83
2022/07/23 07:57:17;;;;;;;7.87;3.90;;;;;;;39.71;21.14;99135.16;4348580;33;33791;-83
2022/07/23 07:59:46;;;;;;;10.93;3.60;;;;;;;38.78;21.20;99130.41;4344586;33;35056;-83
2022/07/23 08:02:14;;;;;;;8.50;3.92;;;;;;;39.94;20.32;99134.75;4348644;33;35315;-84
2022/07/23 08:04:42;;;;;;;10.35;4.47;;;;;;;40.00;20.00;99137.47;4346817;33;33531;-84
2022/07/23 08:07:10;;;;;;;9.90;3.80;;;;;;;40.77;19.13;99136.81;4348599;33;34072;-84
2022/07/23 08:09:37;;;;;;;8.05;3.10;;;;;;;39.46;20.59;99132.22;4341131;33;34929;-84
2022/07/23 08:12:06;;;;;;;14.90;3.92;;;;;;;39.90;20.25;99134.28;4347436;33;35278;-84
2022/07/23 08:14:34;;;;;;;7.22;3.90;;;;;;;39.90;21.35;99128.00;4346783;33;33663;-84
2022/07/23 08:17:02;;;;;;;7.78;3.78;;;;;;;40.85;19.86;99125.66;4346790;33;34593;-84
2022/07/23 08:19:42;;;;;;;9.90;4.30;;;;;;;40.50;19.62;99136.91;4346651;33;35812;-84
2022/07/23 08:22:10;;;;;;;16.90;10.50;;;;;;;40.31;20.84;99132.34;4348310;33;35311;-84
2022/07/23 08:24:38;;;;;;;7.50;4.00;;;;;;;40.04;20.24;99129.69;4345172;33;34611;-83
2022/07/23 08:27:06;;;;;;;7.45;3.90;;;;;;;41.23;18.82;99132.16;4348380;33;34087;-84
2022/07/23 08:29:34;;;;;;;7.45;3.55;;;;;;;40.27;20.29;99128.38;4346300;33;35043;-84
2022/07/23 08:32:02;;;;;;;5.60;3.60;;;;;;;40.42;21.42;99130.88;4346420;33;35232;-84
2022/07/23 08:34:50;;;;;;;7.78;3.85;;;;;;;41.09;19.27;99137.69;4345566;33;33859;-84
2022/07/23 08:37:18;;;;;;;7.03;3.30;;;;;;;40.14;20.07;99135.53;4348287;33;33944;-83
2022/07/23 08:39:46;;;;;;;6.53;3.67;;;;;;;41.27;18.68;99144.31;4346408;33;35793;-84
2022/07/23 08:42:14;;;;;;;7.12;3.80;;;;;;;40.25;22.13;99141.41;4348242;33;34632;-84
2022/07/23 08:44:44;;;;;;;6.72;3.90;;;;;;;40.62;20.18;99137.06;4344925;33;33775;-84
2022/07/23 08:47:13;;;;;;;15.75;3.95;;;;;;;40.79;18.93;99129.22;4347125;33;33547;-84
2022/07/23 08:49:41;;;;;;;8.80;3.70;;;;;;;40.41;19.39;99135.50;4312879;33;35122;-83
2022/07/23 08:52:09;;;;;;;9.93;5.55;;;;;;;40.54;19.14;99140.91;4348209;33;35179;-84
2022/07/23 08:54:37;;;;;;;8.90;3.67;;;;;;;39.87;20.38;99133.88;4346238;33;33549;-83
2022/07/23 08:57:05;;;;;;;7.40;3.45;;;;;;;40.85;20.00;99131.09;4334862;33;33566;-84
2022/07/23 08:59:33;;;;;;;7.55;3.67;;;;;;;39.90;20.72;99130.75;4346212;33;34971;-84
2022/07/23 09:02:01;;;;;;;8.65;3.30;;;;;;;40.93;19.06;99124.56;4348040;33;35345;-84
2022/07/23 09:04:30;;;;;;;4.85;3.70;;;;;;;40.53;20.39;99122.84;4342215;33;33530;-84
2022/07/23 09:06:59;;;;;;;20.95;5.68;;;;;;;40.36;20.64;99124.37;4326879;33;33938;-84
2022/07/23 09:09:29;;;;;;;5.93;3.50;;;;;;;40.68;18.93;99121.72;4333010;33;35125;-84
2022/07/23 09:12:04;;;;;;;8.68;3.70;;;;;;;40.29;19.66;99126.25;4348058;33;35272;-84
2022/07/23 09:14:39;;;;;;;10.43;3.80;;;;;;;40.76;18.41;99126.94;4346502;33;34438;-84
2022/07/23 09:17:18;;;;;;;10.18;4.10;;;;;;;41.17;18.52;99131.09;4347879;33;34902;-84
2022/07/23 09:19:45;;;;;;;5.95;3.78;;;;;;;40.81;18.71;99121.69;4345867;33;35055;-84
2022/07/23 09:22:18;;;;;;;6.87;4.00;;;;;;;41.38;18.62;99127.19;4347623;33;34590;-84
2022/07/23 09:25:15;;;;;;;6.57;3.78;;;;;;;41.22;20.24;99109.44;4344318;33;33531;-84
2022/07/23 09:27:47;;;;;;;5.68;3.62;;;;;;;41.09;20.31;99123.19;4347729;33;34062;-84
2022/07/23 09:30:27;;;;;;;5.15;3.95;;;;;;;41.32;18.52;99114.44;4345725;33;35017;-84
2022/07/23 09:33:13;;;;;;;8.07;4.53;;;;;;;41.28;18.52;99108.59;4347710;33;34494;-83
2022/07/23 09:35:45;;;;;;;12.13;4.25;;;;;;;41.75;17.69;99115.56;4332763;33;33462;-84
2022/07/23 09:38:14;;;;;;;8.65;4.22;;;;;;;41.29;18.35;99115.72;4346063;33;34552;-84
2022/07/23 09:40:42;;;;;;;5.78;3.60;;;;;;;41.38;19.32;99121.72;4345574;33;35074;-84
2022/07/23 09:43:10;;;;;;;5.30;3.80;;;;;;;41.36;18.65;99121.12;4332816;33;34642;-85
2022/07/23 09:45:41;;;;;;;6.65;4.40;;;;;;;40.72;18.19;99114.78;4345572;33;33694;-84
2022/07/23 09:48:16;;;;;;;6.78;4.20;;;;;;;41.02;18.62;99114.22;4349359;33;34692;-83
2022/07/23 09:50:45;;;;;;;6.82;3.92;;;;;;;41.06;19.47;99120.91;4347495;33;35037;-84
2022/07/23 09:53:28;;;;;;;5.35;4.00;;;;;;;40.70;19.13;99114.16;4348012;33;34170;-83
2022/07/23 09:55:58;;;;;;;5.65;3.80;;;;;;;41.29;17.60;99103.94;4347755;33;33627;-84
2022/07/23 09:58:28;;;;;;;4.75;3.78;;;;;;;39.91;19.26;99113.34;4347944;33;34660;-84
2022/07/23 10:00:58;;;;;;;6.28;3.50;;;;;;;41.52;18.18;99111.53;4334792;33;35709;-85
2022/07/23 10:03:26;;;;;;;5.68;3.60;;;;;;;40.99;18.45;99106.47;4336207;33;34165;-84
2022/07/23 10:05:56;;;;;;;9.45;4.47;;;;;;;40.73;18.37;99105.53;4347879;33;34007;-84
2022/07/23 10:08:26;;;;;;;6.60;3.80;;;;;;;41.00;18.57;99108.13;4341266;33;35904;-83
2022/07/23 10:10:57;;;;;;;9.20;3.83;;;;;;;40.92;18.95;99099.13;4334968;33;34359;-84
2022/07/23 10:16:12;;;;;;;7.00;3.95;;;;;;;41.19;17.17;99101.66;4347548;33;33266;-83
2022/07/23 10:18:46;;;;;;;10.27;4.22;;;;;;;41.23;17.15;99097.47;4347171;33;34620;-83
2022/07/23 10:21:20;;;;;;;9.02;3.50;;;;;;;41.34;17.06;99090.47;4347720;33;35023;-83
2022/07/23 10:24:15;;;;;;;8.85;3.78;;;;;;;40.85;17.86;99089.31;4343608;33;34474;-84
2022/07/23 10:27:15;;;;;;;7.72;3.37;;;;;;;40.44;17.59;99080.47;4323390;33;33556;-83
2022/07/23 10:29:55;;;;;;;5.07;3.80;;;;;;;40.81;17.55;99079.91;4343782;33;33653;-84
2022/07/23 10:32:38;;;;;;;8.15;3.33;;;;;;;40.72;17.95;99079.28;4349206;33;35021;-85
2022/07/23 10:35:18;;;;;;;5.55;3.80;;;;;;;41.71;17.27;99073.34;4347341;33;34938;-84
2022/07/23 10:37:49;;;;;;;5.65;3.95;;;;;;;40.96;18.52;99082.31;4345752;33;33348;-84
2022/07/23 10:40:21;;;;;;;7.32;3.62;;;;;;;41.62;17.34;99073.59;4347292;33;34769;-85
2022/07/23 10:42:52;;;;;;;8.20;4.53;;;;;;;41.58;17.02;99069.66;4347692;33;34157;-83
2022/07/23 10:45:24;;;;;;;6.32;4.43;;;;;;;41.31;16.83;99064.41;4334371;33;34545;-84
2022/07/23 10:47:52;;;;;;;5.37;4.10;;;;;;;40.78;18.39;99059.28;4349121;33;33728;-84
2022/07/23 10:50:34;;;;;;;5.65;3.90;;;;;;;41.56;18.53;99063.53;4341356;33;33911;-84
2022/07/23 10:53:08;;;;;;;5.78;4.20;;;;;;;41.54;17.47;99062.09;4348721;33;35773;-84
2022/07/23 10:55:36;;;;;;;9.03;3.57;;;;;;;41.86;19.02;99054.63;4324211;33;35352;-84
2022/07/23 10:58:05;;;;;;;7.82;4.10;;;;;;;42.09;17.54;99042.22;4348306;33;33766;-84
2022/07/23 11:00:35;;;;;;;9.45;3.72;;;;;;;42.49;18.66;99052.62;4348729;33;32278;-85
2022/07/23 11:03:08;;;;;;;5.93;3.85;;;;;;;42.19;17.72;99047.97;4348872;33;35837;-84
2022/07/23 11:05:44;;;;;;;5.50;3.72;;;;;;;42.70;15.71;99043.94;4348810;33;35364;-84
2022/07/23 11:08:17;;;;;;;6.43;4.18;;;;;;;41.59;17.14;99046.69;4347543;33;34611;-82
2022/07/23 11:10:49;;;;;;;7.50;3.72;;;;;;;41.63;16.78;99045.16;4328832;33;32296;-85
2022/07/23 11:13:36;;;;;;;6.70;4.22;;;;;;;42.11;17.05;99040.06;4347085;33;35017;-84
2022/07/23 11:16:10;;;;;;;8.52;4.20;;;;;;;41.32;17.64;99043.41;4335686;33;34174;-84
2022/07/23 11:18:42;;;;;;;9.88;3.85;;;;;;;41.06;18.13;99033.50;4345647;33;34043;-84
2022/07/23 11:21:28;;;;;;;6.45;3.87;;;;;;;41.83;16.30;99022.31;4349155;33;34616;-84
2022/07/23 11:23:57;;;;;;;6.90;3.97;;;;;;;40.66;17.33;99041.94;4347010;33;35892;-84
2022/07/23 11:26:38;;;;;;;5.68;4.00;;;;;;;40.48;18.48;99024.41;4348809;33;34517;-84
2022/07/23 11:29:27;;;;;;;6.78;4.12;;;;;;;40.46;18.44;99023.78;4345612;33;33810;-85
2022/07/23 11:32:04;;;;;;;7.35;4.20;;;;;;;40.28;19.45;99015.47;4347311;33;34050;-84
2022/07/23 11:34:46;;;;;;;7.15;3.80;;;;;;;41.58;17.55;99019.59;4333837;33;35741;-85
2022/07/23 11:37:27;;;;;;;6.40;3.83;;;;;;;41.38;17.19;99019.78;4335592;33;34607;-85
2022/07/23 11:39:57;;;;;;;7.47;4.15;;;;;;;40.65;17.85;99010.25;4347036;33;34086;-84
2022/07/23 11:42:25;;;;;;;7.90;3.90;;;;;;;41.51;17.54;99008.72;4348737;33;34768;-84
2022/07/23 11:44:58;;;;;;;6.60;3.67;;;;;;;41.37;17.77;99005.31;4343031;33;34773;-85
2022/07/23 11:47:26;;;;;;;5.70;3.50;;;;;;;41.37;18.13;99009.91;4348627;33;34473;-84